createdAt,value
2022-11-18T00:06:34.056Z,56.45
2022-11-18T00:16:35.643Z,63.90
2022-11-18T00:26:44.593Z,67.68
2022-11-18T00:36:48.764Z,73.78
2022-11-18T00:46:53.519Z,74.22
2022-11-18T00:56:57.207Z,74.95
2022-11-18T01:17:02.848Z,74.80
2022-11-18T01:27:05.829Z,75.35
2022-11-18T01:37:07.575Z,89.07
2022-11-18T01:47:10.409Z,84.40
2022-11-18T01:57:17.295Z,82.37
2022-11-18T02:07:19.929Z,85.55
2022-11-18T02:17:37.465Z,110.60
2022-11-18T02:27:43.534Z,105.30
2022-11-18T02:37:52.401Z,119.20
2022-11-18T02:47:56.688Z,134.45
2022-11-18T02:58:03.615Z,143.93
2022-11-18T03:08:15.271Z,119.57
2022-11-18T03:18:29.437Z,120.38
2022-11-18T03:28:41.953Z,128.35
2022-11-18T03:38:51.477Z,116.13
2022-11-18T03:48:56.589Z,115.07
2022-11-18T03:59:12.035Z,140.77
2022-11-18T04:09:45.544Z,121.30
2022-11-18T04:19:47.845Z,119.70
2022-11-18T04:29:51.466Z,113.90
2022-11-18T04:49:54.693Z,129.90
2022-11-18T04:59:56.376Z,105.13
2022-11-18T05:09:59.306Z,113.93
2022-11-18T05:20:09.528Z,114.00
2022-11-18T05:30:14.878Z,114.07
2022-11-18T05:40:16.869Z,117.78
2022-11-18T05:50:21.235Z,115.68
2022-11-18T06:00:23.522Z,104.00
2022-11-18T06:10:32.239Z,110.75
2022-11-18T06:20:36.367Z,99.75
2022-11-18T06:30:45.536Z,107.03
2022-11-18T06:40:49.209Z,98.43
2022-11-18T06:50:50.903Z,88.35
2022-11-18T07:00:55.825Z,80.82
2022-11-18T07:10:59.551Z,84.25
2022-11-18T07:31:23.224Z,58.63
2022-11-18T07:41:33.673Z,46.55
2022-11-18T07:51:42.273Z,45.80
2022-11-18T08:01:44.770Z,51.40
2022-11-18T08:11:51.566Z,50.00
2022-11-18T08:21:53.357Z,51.55
2022-11-18T08:31:55.080Z,46.30
2022-11-18T08:41:59.538Z,47.35
2022-11-18T08:52:01.206Z,48.78
2022-11-18T09:02:03.957Z,49.58
2022-11-18T09:12:05.960Z,49.20
2022-11-18T09:22:15.044Z,44.60
2022-11-18T09:32:16.788Z,55.78
2022-11-18T09:42:38.853Z,48.35
2022-11-18T09:52:55.663Z,46.30
2022-11-18T10:03:16.225Z,50.45
2022-11-18T10:13:47.449Z,48.33
2022-11-18T10:23:59.382Z,46.35
2022-11-18T10:34:05.295Z,40.08
2022-11-18T10:44:30.592Z,32.72
2022-11-18T10:54:33.759Z,27.67
2022-11-18T11:04:37.277Z,26.23
2022-11-18T11:24:50.183Z,21.38
2022-11-18T11:35:17.119Z,24.40
2022-11-18T11:45:28.861Z,30.63
2022-11-18T11:56:11.091Z,26.90
2022-11-18T12:06:14.389Z,28.55
2022-11-18T12:17:01.447Z,30.80
2022-11-18T12:27:11.827Z,31.60
2022-11-18T12:37:26.043Z,23.50
2022-11-18T12:47:40.830Z,21.55
2022-11-18T12:57:43.999Z,19.92
2022-11-18T13:08:13.314Z,20.55
2022-11-18T13:18:20.672Z,19.25
2022-11-18T13:28:45.240Z,20.77
2022-11-18T13:39:00.926Z,18.70
2022-11-18T13:49:03.716Z,18.30
2022-11-18T13:59:21.854Z,17.13
2022-11-18T14:09:31.334Z,18.05
2022-11-18T14:19:33.936Z,18.75
2022-11-18T14:29:35.560Z,21.80
2022-11-18T14:39:38.044Z,23.48
2022-11-18T14:49:40.101Z,27.23
2022-11-18T14:59:53.683Z,23.58
2022-11-18T15:09:58.615Z,26.02
2022-11-18T15:20:07.061Z,25.42
2022-11-18T15:30:12.586Z,23.15
2022-11-18T15:40:15.268Z,24.25
2022-11-18T15:50:17.377Z,31.10
2022-11-18T16:00:22.574Z,25.38
2022-11-18T16:10:42.874Z,31.25
2022-11-18T16:20:44.655Z,34.70
2022-11-18T16:31:09.956Z,37.58
2022-11-18T16:41:31.985Z,42.83
2022-11-18T16:51:35.423Z,46.75
2022-11-18T17:01:43.280Z,43.80
2022-11-18T17:11:45.125Z,50.65
2022-11-18T17:21:48.458Z,58.85
2022-11-18T17:31:55.102Z,54.47
2022-11-18T17:42:17.773Z,62.20
2022-11-18T17:53:25.349Z,60.30
2022-11-18T18:03:33.272Z,61.00
2022-11-18T18:13:56.096Z,65.63
2022-11-18T18:23:59.359Z,67.28
2022-11-18T18:34:03.666Z,73.10
2022-11-18T18:44:05.664Z,74.18
2022-11-18T18:54:17.038Z,70.90
2022-11-18T19:04:19.798Z,61.72
2022-11-18T19:14:26.585Z,65.80
2022-11-18T19:24:48.625Z,63.67
2022-11-18T19:34:51.892Z,67.93
2022-11-18T19:44:53.834Z,61.42
2022-11-18T19:55:00.856Z,52.95
2022-11-18T20:05:25.130Z,48.47
2022-11-18T20:15:27.321Z,39.97
2022-11-18T20:25:29.663Z,28.10
2022-11-18T20:35:35.794Z,23.52
2022-11-18T20:45:38.581Z,25.50
2022-11-18T20:55:43.098Z,18.20
2022-11-18T21:05:45.013Z,16.83
2022-11-18T21:15:54.878Z,17.88
2022-11-18T21:26:01.897Z,15.00
2022-11-18T21:36:03.605Z,10.88
2022-11-18T21:46:08.569Z,12.52
2022-11-18T21:56:16.314Z,12.70
2022-11-18T22:06:20.483Z,17.92
2022-11-18T22:16:25.503Z,17.88
2022-11-18T22:26:28.969Z,16.52
2022-11-18T22:36:32.244Z,19.38
2022-11-18T22:46:41.086Z,19.90
2022-11-18T22:56:43.848Z,22.73
2022-11-18T23:06:45.513Z,21.00
2022-11-18T23:16:57.726Z,22.40
2022-11-18T23:26:59.342Z,24.55
2022-11-18T23:37:01.455Z,25.00
2022-11-18T23:47:05.431Z,24.08
2022-11-18T23:57:07.406Z,26.80
